createdAt,value
2017-10-18T00:00:26.046Z,47.27
2017-10-18T00:02:53.603Z,41.70
2017-10-18T00:05:21.175Z,36.27
2017-10-18T00:07:48.727Z,33.53
2017-10-18T00:10:16.307Z,36.10
2017-10-18T00:12:44.608Z,42.73
2017-10-18T00:15:12.132Z,41.87
2017-10-18T00:17:39.677Z,40.30
2017-10-18T00:20:07.195Z,38.93
2017-10-18T00:22:34.720Z,47.97
2017-10-18T00:25:03.007Z,46.03
2017-10-18T00:27:31.402Z,49.57
2017-10-18T00:29:58.939Z,39.30
2017-10-18T00:32:27.255Z,48.30
2017-10-18T00:34:54.791Z,43.47
2017-10-18T00:37:23.116Z,53.47
2017-10-18T00:39:50.641Z,41.60
2017-10-18T00:42:18.167Z,39.90
2017-10-18T00:44:45.682Z,43.07
2017-10-18T00:47:13.230Z,52.60
2017-10-18T00:49:40.751Z,44.20
2017-10-18T00:52:08.311Z,51.83
2017-10-18T00:54:35.883Z,46.90
2017-10-18T00:57:04.192Z,44.63
2017-10-18T00:59:31.703Z,48.17
2017-10-18T01:02:00.075Z,39.53
2017-10-18T01:04:27.623Z,45.33
2017-10-18T01:06:55.153Z,44.17
2017-10-18T01:09:22.722Z,41.53
2017-10-18T01:11:50.234Z,41.07
2017-10-18T01:14:18.656Z,38.07
2017-10-18T01:16:46.187Z,46.17
2017-10-18T01:19:14.515Z,45.00
2017-10-18T01:21:42.124Z,39.80
2017-10-18T01:24:10.431Z,41.93
2017-10-18T01:26:38.026Z,43.40
2017-10-18T01:29:05.637Z,37.30
2017-10-18T01:31:33.172Z,44.07
2017-10-18T01:34:00.703Z,38.93
2017-10-18T01:36:28.218Z,47.83
2017-10-18T01:38:55.745Z,39.40
2017-10-18T01:41:24.275Z,37.67
2017-10-18T01:43:52.144Z,45.83
2017-10-18T01:46:20.111Z,37.23
2017-10-18T01:48:47.971Z,50.00
2017-10-18T01:51:15.927Z,53.50
2017-10-18T01:53:45.496Z,47.83
2017-10-18T01:56:14.758Z,45.20
2017-10-18T01:58:42.731Z,46.13
2017-10-18T02:01:10.670Z,39.50
2017-10-18T02:03:39.180Z,52.40
2017-10-18T02:06:06.946Z,53.00
2017-10-18T02:08:35.119Z,40.23
2017-10-18T02:11:02.882Z,48.50
2017-10-18T02:13:30.855Z,40.50
2017-10-18T02:15:58.610Z,52.40
2017-10-18T02:21:25.356Z,36.57
2017-10-18T02:23:54.048Z,36.50
2017-10-18T02:26:22.625Z,43.60
2017-10-18T02:28:51.538Z,38.87
2017-10-18T02:31:19.360Z,47.50
2017-10-18T02:33:46.979Z,47.07
2017-10-18T02:36:17.779Z,40.63
2017-10-18T02:38:46.298Z,35.17
2017-10-18T02:41:13.984Z,35.93
2017-10-18T02:43:41.633Z,41.30
2017-10-18T02:46:09.374Z,43.10
2017-10-18T02:48:37.051Z,41.10
2017-10-18T02:51:04.708Z,40.40
2017-10-18T02:53:32.340Z,38.07
2017-10-18T02:56:00.688Z,37.97
2017-10-18T02:58:28.421Z,40.57
2017-10-18T03:00:56.186Z,40.30
2017-10-18T03:03:23.901Z,41.80
2017-10-18T03:05:51.612Z,40.40
2017-10-18T03:08:19.253Z,34.43
2017-10-18T03:10:47.616Z,34.87
2017-10-18T03:13:16.131Z,39.03
2017-10-18T03:15:43.775Z,37.43
2017-10-18T03:18:12.528Z,47.20
2017-10-18T03:20:40.335Z,36.47
2017-10-18T03:23:09.148Z,32.50
2017-10-18T03:25:36.830Z,35.63
2017-10-18T03:28:04.372Z,37.67
2017-10-18T03:30:31.909Z,35.30
2017-10-18T03:33:00.205Z,39.10
2017-10-18T03:35:27.768Z,38.40
2017-10-18T03:37:55.275Z,40.53
2017-10-18T03:40:22.803Z,43.30
2017-10-18T03:42:50.355Z,42.50
2017-10-18T03:45:17.880Z,36.40
2017-10-18T03:47:46.156Z,45.20
2017-10-18T03:50:14.487Z,43.97
2017-10-18T03:52:42.039Z,41.20
2017-10-18T03:55:09.551Z,40.40
2017-10-18T03:57:37.062Z,38.50
2017-10-18T04:00:04.571Z,49.10
2017-10-18T04:02:32.156Z,38.60
2017-10-18T04:04:59.722Z,49.00
2017-10-18T04:07:27.236Z,40.20
2017-10-18T04:09:56.574Z,43.07
2017-10-18T04:12:25.010Z,40.60
2017-10-18T04:14:52.576Z,37.60
2017-10-18T04:17:20.127Z,51.70
2017-10-18T04:19:47.639Z,40.40
2017-10-18T04:22:15.968Z,57.33
2017-10-18T04:24:43.492Z,52.97
2017-10-18T04:27:11.153Z,49.47
2017-10-18T04:29:38.755Z,53.93
2017-10-18T04:32:06.331Z,42.63
2017-10-18T04:34:33.930Z,46.80
2017-10-18T04:37:01.503Z,58.80
2017-10-18T04:39:29.019Z,48.00
2017-10-18T04:41:56.555Z,61.00
2017-10-18T04:44:24.092Z,44.80
2017-10-18T04:46:51.627Z,49.67
2017-10-18T04:49:19.165Z,47.83
2017-10-18T04:51:47.479Z,37.73
2017-10-18T04:54:15.035Z,40.00
2017-10-18T04:56:42.592Z,42.23
2017-10-18T04:59:10.139Z,40.07
2017-10-18T05:01:38.415Z,41.33
2017-10-18T05:04:06.719Z,40.10
2017-10-18T05:06:34.379Z,53.07
2017-10-18T05:09:01.927Z,43.67
2017-10-18T05:11:29.509Z,44.43
2017-10-18T05:13:57.032Z,40.67
2017-10-18T05:16:25.343Z,46.53
2017-10-18T05:18:52.893Z,41.40
2017-10-18T05:21:20.563Z,55.63
2017-10-18T05:23:48.132Z,49.00
2017-10-18T05:26:15.657Z,36.30
2017-10-18T05:28:43.943Z,44.70
2017-10-18T05:31:12.240Z,50.10
2017-10-18T05:33:39.800Z,33.47
2017-10-18T05:36:07.354Z,35.97
2017-10-18T05:38:34.870Z,41.23
2017-10-18T05:41:03.966Z,38.20
2017-10-18T05:43:31.479Z,44.83
2017-10-18T05:45:59.131Z,48.87
2017-10-18T05:48:26.660Z,38.83
2017-10-18T05:50:54.204Z,62.77
2017-10-18T05:53:21.710Z,42.60
2017-10-18T05:55:49.314Z,43.47
2017-10-18T05:58:16.934Z,47.13
2017-10-18T06:00:44.442Z,53.77
2017-10-18T06:03:11.953Z,39.80
2017-10-18T06:05:39.462Z,44.73
2017-10-18T06:08:06.986Z,38.40
2017-10-18T06:10:34.495Z,43.53
2017-10-18T06:13:02.100Z,39.03
2017-10-18T06:15:29.606Z,48.67
2017-10-18T06:17:57.171Z,44.13
2017-10-18T06:20:26.188Z,63.67
2017-10-18T06:22:54.487Z,44.60
2017-10-18T06:25:22.010Z,34.07
2017-10-18T06:27:50.339Z,35.27
2017-10-18T06:30:17.859Z,36.00
2017-10-18T06:32:46.138Z,41.60
2017-10-18T06:35:14.441Z,36.60
2017-10-18T06:37:41.983Z,36.00
2017-10-18T06:40:09.501Z,34.20
2017-10-18T06:42:37.018Z,38.97
2017-10-18T06:45:04.588Z,37.83
2017-10-18T06:47:32.139Z,42.33
2017-10-18T06:49:59.698Z,34.50
2017-10-18T06:52:27.213Z,39.20
2017-10-18T06:54:54.751Z,38.63
2017-10-18T06:57:22.292Z,30.00
2017-10-18T06:59:49.823Z,37.43
2017-10-18T07:02:18.119Z,34.87
2017-10-18T07:04:45.646Z,40.83
2017-10-18T07:07:13.156Z,42.00
2017-10-18T07:09:40.682Z,35.07
2017-10-18T07:12:08.963Z,37.47
2017-10-18T07:14:37.264Z,34.50
2017-10-18T07:17:05.212Z,58.67
2017-10-18T07:19:33.491Z,71.93
2017-10-18T07:22:01.766Z,41.57
2017-10-18T07:24:30.206Z,38.87
2017-10-18T07:26:57.763Z,56.73
2017-10-18T07:29:25.270Z,45.57
2017-10-18T07:31:53.591Z,49.17
2017-10-18T07:34:21.163Z,54.33
2017-10-18T07:36:48.687Z,64.13
2017-10-18T07:39:16.276Z,52.77
2017-10-18T07:41:43.837Z,65.47
2017-10-18T07:44:11.409Z,55.43
2017-10-18T07:46:38.919Z,51.43
2017-10-18T07:49:06.440Z,55.47
2017-10-18T07:51:35.486Z,69.10
2017-10-18T07:54:03.096Z,109.60
2017-10-18T07:56:31.535Z,66.03
2017-10-18T07:58:59.063Z,77.83
2017-10-18T08:01:27.360Z,69.80
2017-10-18T08:03:54.925Z,68.60
2017-10-18T08:06:22.448Z,63.73
2017-10-18T08:08:50.042Z,65.13
2017-10-18T08:11:17.603Z,60.50
2017-10-18T08:13:45.160Z,55.70
2017-10-18T08:16:12.716Z,75.43
2017-10-18T08:18:40.292Z,56.60
2017-10-18T08:21:07.826Z,63.20
2017-10-18T08:23:36.104Z,66.73
2017-10-18T08:26:04.410Z,70.73
2017-10-18T08:28:31.963Z,60.17
2017-10-18T08:30:59.522Z,61.13
2017-10-18T08:33:27.068Z,70.20
2017-10-18T08:35:55.348Z,62.23
2017-10-18T08:38:23.632Z,64.40
2017-10-18T08:40:51.154Z,63.30
2017-10-18T08:43:18.779Z,68.07
2017-10-18T08:45:46.302Z,69.90
2017-10-18T08:48:14.586Z,76.53
2017-10-18T08:50:42.155Z,69.40
2017-10-18T08:53:09.719Z,71.97
2017-10-18T08:55:37.231Z,68.63
2017-10-18T08:58:04.750Z,75.43
2017-10-18T09:00:32.256Z,76.47
2017-10-18T09:02:59.795Z,77.57
2017-10-18T09:05:27.326Z,83.93
2017-10-18T09:07:54.874Z,73.83
2017-10-18T09:10:22.451Z,89.30
2017-10-18T09:12:49.960Z,89.17
2017-10-18T09:15:17.543Z,88.00
2017-10-18T09:17:45.838Z,92.20
2017-10-18T09:20:13.399Z,93.00
2017-10-18T09:22:40.963Z,88.13
2017-10-18T09:25:08.522Z,82.67
2017-10-18T09:27:36.075Z,83.37
2017-10-18T09:30:03.592Z,87.43
2017-10-18T09:32:31.904Z,88.53
2017-10-18T09:35:00.184Z,76.33
2017-10-18T09:37:28.467Z,78.47
2017-10-18T09:39:56.016Z,79.30
2017-10-18T09:42:24.347Z,90.53
2017-10-18T09:44:51.863Z,90.53
2017-10-18T09:47:20.151Z,82.03
2017-10-18T09:49:47.669Z,78.20
2017-10-18T09:52:15.170Z,77.50
2017-10-18T09:54:42.685Z,72.63
2017-10-18T09:57:10.200Z,76.57
2017-10-18T09:59:37.751Z,79.23
2017-10-18T10:02:05.294Z,70.20
2017-10-18T10:04:33.586Z,80.57
2017-10-18T10:07:01.093Z,78.30
2017-10-18T10:09:28.716Z,77.13
2017-10-18T10:11:56.263Z,89.33
2017-10-18T10:14:24.674Z,73.63
2017-10-18T10:16:52.204Z,86.50
2017-10-18T10:19:19.766Z,85.10
2017-10-18T10:21:47.327Z,78.60
2017-10-18T10:24:14.891Z,79.00
2017-10-18T10:26:42.451Z,89.30
2017-10-18T10:29:09.978Z,79.60
2017-10-18T10:31:37.499Z,79.50
2017-10-18T10:34:05.131Z,86.67
2017-10-18T10:36:32.655Z,90.37
2017-10-18T10:39:00.255Z,94.63
2017-10-18T10:41:27.820Z,81.90
2017-10-18T10:43:55.374Z,80.43
2017-10-18T10:46:22.885Z,79.07
2017-10-18T10:48:50.425Z,76.20
2017-10-18T10:51:17.954Z,76.07
2017-10-18T10:53:45.523Z,85.93
2017-10-18T10:56:13.092Z,78.73
2017-10-18T10:58:40.605Z,78.77
2017-10-18T11:01:08.142Z,85.50
2017-10-18T11:03:35.757Z,74.17
2017-10-18T11:06:03.302Z,92.60
2017-10-18T11:08:31.603Z,86.43
2017-10-18T11:10:59.260Z,81.83
2017-10-18T11:13:26.775Z,79.83
2017-10-18T11:15:54.391Z,75.90
2017-10-18T11:18:22.662Z,79.97
2017-10-18T11:20:50.204Z,76.87
2017-10-18T11:23:18.483Z,71.80
2017-10-18T11:25:46.794Z,70.07
2017-10-18T11:28:14.316Z,76.10
2017-10-18T11:30:42.595Z,73.03
2017-10-18T11:33:10.887Z,71.73
2017-10-18T11:35:38.402Z,79.17
2017-10-18T11:38:05.919Z,73.00
2017-10-18T11:40:33.470Z,75.87
2017-10-18T11:43:01.030Z,69.63
2017-10-18T11:45:28.586Z,66.47
2017-10-18T11:47:56.120Z,64.23
2017-10-18T11:50:23.710Z,66.83
2017-10-18T11:52:51.283Z,71.63
2017-10-18T11:55:18.838Z,71.77
2017-10-18T11:57:46.357Z,76.47
2017-10-18T12:00:13.875Z,74.77
2017-10-18T12:02:41.531Z,80.10
2017-10-18T12:05:09.050Z,75.57
2017-10-18T12:07:37.352Z,75.77
2017-10-18T12:10:05.728Z,68.10
2017-10-18T12:12:33.251Z,68.67
2017-10-18T12:15:00.767Z,76.23
2017-10-18T12:17:28.278Z,93.97
2017-10-18T12:19:55.875Z,89.17
2017-10-18T12:22:23.483Z,99.37
2017-10-18T12:24:51.107Z,94.50
2017-10-18T12:27:18.619Z,88.80
2017-10-18T12:29:46.156Z,98.57
2017-10-18T12:32:13.671Z,103.87
2017-10-18T12:34:41.972Z,102.57
2017-10-18T12:37:09.487Z,102.37
2017-10-18T12:39:37.024Z,103.00
2017-10-18T12:42:04.536Z,102.43
2017-10-18T12:44:32.107Z,92.03
2017-10-18T12:46:59.626Z,97.80
2017-10-18T12:49:27.135Z,98.00
2017-10-18T12:51:54.714Z,88.63
2017-10-18T12:54:22.236Z,92.53
2017-10-18T12:56:49.795Z,92.33
2017-10-18T12:59:17.362Z,91.00
2017-10-18T13:01:44.911Z,76.63
2017-10-18T13:04:13.194Z,101.70
2017-10-18T13:06:40.737Z,82.53
2017-10-18T13:09:09.055Z,84.83
2017-10-18T13:11:36.615Z,98.73
2017-10-18T13:14:04.134Z,90.70
2017-10-18T13:16:32.419Z,104.83
2017-10-18T13:19:00.720Z,93.10
2017-10-18T13:21:28.231Z,94.53
2017-10-18T13:23:55.833Z,93.00
2017-10-18T13:26:23.347Z,90.33
2017-10-18T13:28:50.855Z,81.93
2017-10-18T13:31:18.413Z,83.83
2017-10-18T13:33:45.926Z,82.40
2017-10-18T13:36:13.543Z,89.93
2017-10-18T13:38:41.100Z,84.67
2017-10-18T13:41:08.629Z,70.33
2017-10-18T13:43:36.218Z,67.90
2017-10-18T13:46:03.740Z,70.10
2017-10-18T13:48:31.264Z,63.40
2017-10-18T13:50:58.780Z,64.40
2017-10-18T13:53:27.079Z,66.43
2017-10-18T13:55:54.647Z,59.93
2017-10-18T13:58:22.168Z,53.10
2017-10-18T14:00:49.774Z,60.03
2017-10-18T14:03:17.285Z,54.30
2017-10-18T14:05:44.797Z,56.77
2017-10-18T14:08:12.318Z,59.63
2017-10-18T14:10:40.608Z,61.10
2017-10-18T14:13:08.908Z,50.20
2017-10-18T14:15:36.426Z,50.60
2017-10-18T14:18:03.953Z,53.63
2017-10-18T14:20:31.500Z,51.83
2017-10-18T14:22:59.042Z,51.90
2017-10-18T14:25:26.600Z,48.70
2017-10-18T14:27:54.134Z,49.97
2017-10-18T14:30:22.472Z,45.60
2017-10-18T14:32:49.990Z,52.63
2017-10-18T14:35:17.570Z,47.20
2017-10-18T14:37:45.122Z,51.53
2017-10-18T14:40:12.682Z,48.37
2017-10-18T14:42:40.255Z,55.47
2017-10-18T14:45:07.760Z,52.57
2017-10-18T14:47:35.318Z,52.10
2017-10-18T14:50:02.928Z,46.97
2017-10-18T14:52:30.435Z,55.53
2017-10-18T14:54:57.950Z,50.77
2017-10-18T14:57:25.468Z,51.57
2017-10-18T14:59:52.988Z,56.80
2017-10-18T15:02:20.505Z,47.47
2017-10-18T15:04:48.789Z,48.53
2017-10-18T15:07:16.369Z,51.80
2017-10-18T15:09:43.921Z,55.53
2017-10-18T15:12:11.482Z,49.00
2017-10-18T15:14:39.043Z,56.93
2017-10-18T15:17:06.604Z,48.70
2017-10-18T15:19:34.114Z,46.43
2017-10-18T15:22:01.718Z,54.30
2017-10-18T15:24:29.237Z,48.57
2017-10-18T15:26:56.769Z,46.80
2017-10-18T15:29:24.301Z,48.00
2017-10-18T15:31:51.819Z,52.07
2017-10-18T15:34:20.863Z,55.30
2017-10-18T15:36:48.385Z,59.17
2017-10-18T15:39:15.924Z,60.23
2017-10-18T15:41:43.427Z,50.07
2017-10-18T15:44:11.729Z,51.73
2017-10-18T15:46:39.309Z,56.27
2017-10-18T15:49:06.844Z,52.43
2017-10-18T15:51:34.356Z,55.00
2017-10-18T15:54:01.894Z,49.23
2017-10-18T15:56:29.415Z,54.00
2017-10-18T15:58:56.934Z,58.97
2017-10-18T16:01:25.213Z,56.17
2017-10-18T16:03:52.755Z,55.63
2017-10-18T16:06:20.324Z,54.47
2017-10-18T16:08:47.838Z,51.17
2017-10-18T16:11:15.419Z,53.00
2017-10-18T16:13:42.965Z,48.17
2017-10-18T16:16:10.498Z,52.03
2017-10-18T16:18:38.829Z,55.10
2017-10-18T16:21:06.413Z,59.00
2017-10-18T16:23:34.749Z,60.90
2017-10-18T16:26:02.338Z,58.77
2017-10-18T16:28:29.860Z,51.60
2017-10-18T16:30:57.425Z,56.53
2017-10-18T16:33:24.967Z,50.50
2017-10-18T16:35:53.310Z,55.20
2017-10-18T16:38:20.917Z,71.73
2017-10-18T16:40:48.503Z,59.87
2017-10-18T16:43:16.031Z,56.73
2017-10-18T16:45:43.555Z,58.33
2017-10-18T16:48:11.870Z,64.87
2017-10-18T16:50:40.163Z,53.50
2017-10-18T16:53:07.693Z,57.57
2017-10-18T16:55:36.025Z,54.10
2017-10-18T16:58:03.581Z,60.03
2017-10-18T17:00:31.106Z,52.47
2017-10-18T17:02:59.444Z,63.53
2017-10-18T17:05:26.964Z,62.50
2017-10-18T17:07:54.495Z,67.20
2017-10-18T17:10:22.770Z,74.90
2017-10-18T17:12:51.088Z,73.87
2017-10-18T17:15:18.599Z,71.60
2017-10-18T17:17:46.119Z,57.20
2017-10-18T17:20:13.631Z,70.27
2017-10-18T17:22:41.918Z,79.30
2017-10-18T17:25:10.306Z,65.57
2017-10-18T17:27:37.839Z,61.70
2017-10-18T17:30:06.173Z,117.67
2017-10-18T17:32:33.719Z,80.50
2017-10-18T17:35:01.278Z,75.93
2017-10-18T17:37:28.841Z,81.63
2017-10-18T17:39:56.415Z,66.77
2017-10-18T17:42:23.935Z,63.70
2017-10-18T17:44:52.239Z,70.47
2017-10-18T17:47:19.775Z,75.57
2017-10-18T17:49:48.111Z,62.73
2017-10-18T17:52:15.644Z,71.73
2017-10-18T17:54:43.202Z,67.17
2017-10-18T17:57:10.723Z,65.37
2017-10-18T17:59:39.097Z,67.47
2017-10-18T18:02:06.646Z,71.23
2017-10-18T18:04:34.255Z,65.33
2017-10-18T18:07:01.820Z,66.30
2017-10-18T18:09:29.337Z,75.00
2017-10-18T18:11:56.995Z,76.83
2017-10-18T18:14:26.247Z,77.13
2017-10-18T18:16:53.866Z,71.93
2017-10-18T18:19:21.430Z,69.43
2017-10-18T18:21:49.757Z,66.50
2017-10-18T18:24:17.386Z,63.17
2017-10-18T18:26:45.749Z,70.10
2017-10-18T18:29:14.162Z,61.67
2017-10-18T18:31:41.818Z,69.93
2017-10-18T18:34:09.547Z,70.90
2017-10-18T18:36:37.326Z,67.43
2017-10-18T18:39:05.892Z,65.27
2017-10-18T18:41:34.322Z,54.07
2017-10-18T18:44:02.089Z,78.90
2017-10-18T18:46:29.710Z,63.50
2017-10-18T18:48:57.367Z,62.57
2017-10-18T18:51:25.758Z,58.30
2017-10-18T18:53:54.179Z,60.47
2017-10-18T18:56:21.831Z,56.53
2017-10-18T18:58:49.387Z,55.33
2017-10-18T19:01:16.948Z,50.63
2017-10-18T19:03:44.636Z,54.93
2017-10-18T19:06:12.162Z,59.30
2017-10-18T19:08:39.698Z,59.97
2017-10-18T19:11:08.000Z,61.87
2017-10-18T19:13:36.308Z,53.60
2017-10-18T19:16:03.848Z,62.33
2017-10-18T19:18:31.360Z,52.37
2017-10-18T19:20:58.883Z,65.37
2017-10-18T19:23:26.405Z,54.33
2017-10-18T19:25:54.725Z,49.53
2017-10-18T19:28:22.264Z,56.53
2017-10-18T19:30:49.774Z,58.50
2017-10-18T19:33:17.358Z,59.20
2017-10-18T19:35:44.975Z,50.63
2017-10-18T19:38:12.532Z,62.43
2017-10-18T19:40:40.037Z,54.27
2017-10-18T19:43:08.323Z,60.17
2017-10-18T19:45:36.640Z,48.27
2017-10-18T19:48:04.170Z,56.80
2017-10-18T19:50:32.454Z,78.20
2017-10-18T19:53:00.742Z,59.60
2017-10-18T19:55:28.280Z,64.23
2017-10-18T19:57:56.592Z,64.27
2017-10-18T20:00:24.149Z,53.77
2017-10-18T20:02:51.663Z,58.43
2017-10-18T20:05:19.220Z,59.10
2017-10-18T20:07:46.844Z,61.53
2017-10-18T20:10:14.419Z,60.17
2017-10-18T20:12:41.943Z,55.67
2017-10-18T20:15:09.473Z,53.40
2017-10-18T20:17:37.006Z,61.37
2017-10-18T20:20:04.544Z,58.73
2017-10-18T20:22:32.207Z,56.93
2017-10-18T20:24:59.748Z,52.23
2017-10-18T20:27:27.276Z,60.90
2017-10-18T20:29:54.819Z,65.07
2017-10-18T20:32:22.359Z,54.90
2017-10-18T20:34:49.901Z,53.70
2017-10-18T20:37:17.491Z,52.20
2017-10-18T20:39:45.024Z,50.53
2017-10-18T20:42:12.592Z,56.40
2017-10-18T20:44:40.115Z,56.60
2017-10-18T20:47:09.905Z,47.60
2017-10-18T20:49:37.481Z,51.70
2017-10-18T20:52:05.787Z,57.20
2017-10-18T20:54:33.298Z,46.23
2017-10-18T20:57:00.866Z,56.97
2017-10-18T20:59:28.477Z,56.13
2017-10-18T21:01:56.039Z,58.90
2017-10-18T21:04:23.592Z,58.50
2017-10-18T21:06:51.207Z,56.17
2017-10-18T21:09:18.747Z,49.73
2017-10-18T21:11:46.319Z,53.70
2017-10-18T21:14:13.848Z,53.17
2017-10-18T21:16:41.450Z,52.83
2017-10-18T21:19:08.984Z,49.87
2017-10-18T21:21:36.560Z,50.20
2017-10-18T21:24:04.137Z,53.60
2017-10-18T21:26:31.660Z,49.63
2017-10-18T21:28:59.266Z,54.03
2017-10-18T21:31:27.691Z,47.47
2017-10-18T21:33:55.284Z,51.23
2017-10-18T21:36:22.840Z,48.80
2017-10-18T21:38:50.370Z,53.60
2017-10-18T21:41:17.899Z,49.33
2017-10-18T21:43:46.263Z,56.77
2017-10-18T21:46:13.818Z,52.87
2017-10-18T21:48:41.439Z,49.73
2017-10-18T21:51:08.979Z,54.77
2017-10-18T21:53:36.552Z,71.70
2017-10-18T21:56:04.115Z,60.30
2017-10-18T21:58:31.760Z,57.90
2017-10-18T22:00:59.336Z,52.30
2017-10-18T22:03:26.902Z,48.30
2017-10-18T22:05:54.510Z,51.60
2017-10-18T22:08:22.158Z,58.93
2017-10-18T22:10:49.726Z,60.47
2017-10-18T22:13:17.261Z,69.53
2017-10-18T22:15:44.850Z,67.50
2017-10-18T22:18:12.484Z,65.87
2017-10-18T22:20:40.036Z,81.40
2017-10-18T22:23:07.553Z,68.57
2017-10-18T22:25:35.909Z,72.53
2017-10-18T22:28:03.477Z,84.73
2017-10-18T22:30:31.011Z,80.50
2017-10-18T22:32:58.561Z,114.37
2017-10-18T22:35:26.085Z,175.50
2017-10-18T22:37:54.402Z,159.90
2017-10-18T22:40:22.001Z,183.83
2017-10-18T22:42:49.619Z,167.70
2017-10-18T22:45:17.155Z,142.53
2017-10-18T22:47:44.686Z,232.40
2017-10-18T22:50:13.764Z,175.17
2017-10-18T22:52:41.318Z,94.87
2017-10-18T22:55:08.887Z,151.80
2017-10-18T22:57:36.543Z,163.20
2017-10-18T23:00:04.125Z,101.93
2017-10-18T23:02:31.746Z,101.40
2017-10-18T23:04:59.284Z,137.97
2017-10-18T23:07:26.848Z,146.20
2017-10-18T23:09:54.411Z,75.17
2017-10-18T23:12:21.957Z,74.67
2017-10-18T23:14:50.239Z,110.87
2017-10-18T23:17:17.857Z,161.33
2017-10-18T23:19:45.438Z,181.60
2017-10-18T23:22:13.845Z,126.33
2017-10-18T23:24:41.399Z,125.33
2017-10-18T23:27:09.023Z,121.53
2017-10-18T23:29:36.539Z,57.90
2017-10-18T23:32:04.111Z,53.93
2017-10-18T23:34:31.686Z,162.70
2017-10-18T23:36:59.259Z,121.30
2017-10-18T23:39:26.787Z,75.37
2017-10-18T23:41:54.365Z,102.93
2017-10-18T23:44:21.952Z,91.90
2017-10-18T23:46:49.518Z,86.93
2017-10-18T23:49:17.055Z,48.70
2017-10-18T23:51:44.779Z,70.80
2017-10-18T23:54:12.405Z,116.03
2017-10-18T23:56:40.759Z,74.70
2017-10-18T23:59:08.269Z,74.27
